Station: Walpeup  

  Atmospheric Gas Attenuation - ITU Rec 676-11   ----------------- dB/100km -----------------
Date Time Temp RH % AH g/m3 Dew Point Wind Direction Speed kph Gust kph Barometer mB Rainfall Since 9am 24GHz 47GHz 76GHz 122GHz 134GHz 241GHz
08/05 12:40 17 63 9.12 9.9 28 33 1013.1 0 20.5 25.8 40.2 105.7 101.1 348.3
08/05 12:30 16.4 66 9.21 10 28 41 1013.1 0 20.8 26.1 40.9 107.4 103.0 355.0
08/05 12:20 16.5 69 9.69 10.8 28 33 1013.1 0 21.8 26.9 42.8 112.4 109.2 376.6
08/05 12:10 16.8 72 10.29 11.7 20 24 1013.1 0 23.0 27.7 45.0 118.5 116.8 403.1
08/05 12:00 14.9 80 10.2 11.5 22 33 1013.1 0 23.0 28.2 45.8 120.4 118.4 408.7
08/05 11:50 15.4 75 9.85 11 20 26 1013.1 0 22.2 27.5 44.0 115.7 112.9 389.4
08/05 11:40 16.2 70 9.65 10.7 20 26 1013.1 0 21.7 26.9 42.8 112.4 109.1 376.2
08/05 11:30 16.1 69 9.46 10.4 26 39 1013.1 0 21.3 26.6 42.1 110.5 106.7 367.9
08/05 11:20 16.2 73 10.07 11.5 26 32 1013.1 0 22.6 27.6 44.5 117.0 114.7 395.8
08/05 11:10 15.1 72 9.29 10.1 32 35 1013.1 0 21.0 26.6 41.9 110.1 105.8 364.6
08/05 11:00 15.1 76 9.8 10.9 30 41 1013.1 0 22.1 27.5 44.0 115.6 112.7 388.6
08/05 10:50 15.4 75 9.85 11 24 28 1013.1 0 22.2 27.5 44.0 115.7 112.9 389.4
08/05 10:40 14.7 78 9.82 10.9 26 35 1013.1 0 22.2 27.6 44.3 116.5 113.5 391.5
08/05 10:30 14.1 81 9.83 10.9 26 33 1013.1 0 22.2 27.8 44.7 117.5 114.6 395.0
08/05 10:20 14 80 9.65 10.6 32 37 1013.1 0 21.8 27.6 44.0 115.6 112.2 386.9
08/05 10:10 14.2 80 9.77 10.9 20 26 1013.1 0 22.1 27.7 44.4 116.6 113.6 391.7
08/05 10:00 13.5 82 9.59 10.5 26 37 1013.1 0 21.7 27.6 44.0 115.7 112.1 386.5
08/05 09:50 13.6 82 9.65 10.7 20 28 1013.1 0 21.8 27.7 44.2 116.2 112.8 388.9
08/05 09:40 13.4 84 9.77 10.7 24 30 1013.1 0 22.1 27.9 44.8 117.8 114.8 395.7
08/05 09:30 13.7 85 10.07 11.2 20 32 1013.1 0 22.7 28.4 45.9 120.8 118.5 408.7
08/05 09:20 13 86 9.75 10.7 19 24 1013.1 0 22.1 28.0 45.0 118.2 115.1 396.8
08/05 09:10 12.9 87 9.81 10.8 24 28 1013.1 0 22.2 28.2 45.3 119.1 116.1 400.2
08/05 09:00 12.5 88 9.68 10.6 20 32 1013.1 0 22.0 28.1 45.0 118.2 114.9 395.9
08/05 08:50 12.4 89 9.73 10.6 20 26 1013.1 0 22.1 28.2 45.2 118.9 115.7 398.9
08/05 08:40 12.3 90 9.77 10.7 15 19 1013.1 0 22.2 28.3 45.5 119.5 116.4 401.4
08/05 08:30 11.7 92 9.62 10.4 11 17 1013.1 0 21.9 28.2 45.2 118.7 115.2 397.1
08/05 08:20 11.3 93 9.49 10.2 11 13 1013.1 0 21.6 28.1 44.8 117.9 114.0 392.7
08/05 08:10 11.1 93 9.37 10 9 13 1013.1 0 21.4 28.0 44.4 116.8 112.6 387.8
08/05 08:00 10.8 93 9.19 9.7 9 15 1013.1 0 21.0 27.8 43.8 115.2 110.5 380.4
08/05 07:50 10.7 93 9.14 9.7 11 15 1013.1 0 20.9 27.7 43.7 114.8 109.9 378.5
08/05 07:40 10.4 93 8.97 9.4 11 15 1013.1 0 20.6 27.5 43.1 113.3 108.0 371.6
08/05 07:30 10.2 94 8.95 9.3 11 17 1013.1 0 20.5 27.6 43.1 113.3 108.0 371.5
08/05 07:20 10 93 8.74 9 9 11 1013.1 0 20.1 27.3 42.3 111.2 105.3 362.2
08/05 07:10 9.9 93 8.69 8.9 7 11 1013.1 0 20.0 27.2 42.2 110.8 104.8 360.2
08/05 07:00 9.6 94 8.61 8.7 9 13 1013.1 0 19.8 27.2 42.0 110.3 104.0 357.7
08/05 06:50 9.5 93 8.47 8.5 11 13 1013.1 0 19.5 27.0 41.5 108.9 102.2 351.3
08/05 06:40 9.6 93 8.52 8.6 11 15 1013.1 0 19.6 27.0 41.6 109.3 102.8 353.3
08/05 06:30 9.5 95 8.65 8.7 9 13 1013.1 0 19.9 27.3 42.2 110.9 104.7 360.1
08/05 06:20 9.3 95 8.54 8.5 11 13 1013.1 0 19.7 27.1 41.9 109.9 103.5 355.6
08/05 06:10 9.2 95 8.49 8.4 13 19 1013.1 0 19.6 27.1 41.7 109.5 102.9 353.6
08/05 06:00 9.1 95 8.43 8.3 15 19 1013.1 0 19.5 27.0 41.5 109.0 102.2 351.1
08/05 05:50 8.9 95 8.32 8.1 15 19 1013.1 0 19.2 26.9 41.1 108.0 100.9 346.6
08/05 05:40 9 95 8.38 8.2 13 15 1013.1 0 19.4 27.0 41.3 108.5 101.6 349.1
08/05 05:30 8.8 95 8.27 8 13 19 1013.1 0 19.1 26.8 41.0 107.6 100.4 344.6
08/05 05:20 8.7 95 8.22 7.9 15 19 1013.1 0 19.0 26.8 40.8 107.1 99.8 342.6
08/05 05:10 8.6 94 8.08 7.7 15 17 1013.1 0 18.7 26.6 40.3 105.7 98.0 336.2
08/05 05:00 8.6 94 8.08 7.7 13 17 1013.1 0 18.7 26.6 40.3 105.7 98.0 336.2
08/05 04:50 8.6 94 8.08 7.7 13 15 1013.1 0 18.7 26.6 40.3 105.7 98.0 336.2
08/05 04:40 8.5 94 8.03 7.6 11 13 1013.1 0 18.6 26.5 40.1 105.3 97.4 334.2
08/05 04:30 8.5 93 7.94 7.4 11 15 1013.1 0 18.4 26.4 39.7 104.3 96.1 329.9
08/05 04:20 8.6 93 7.99 7.5 11 13 1013.1 0 18.5 26.4 39.9 104.7 96.7 331.9
08/05 04:10 8.8 93 8.1 7.7 11 13 1013.1 0 18.8 26.5 40.3 105.7 98.0 336.4
08/05 04:00 8.8 93 8.1 7.7 9 15 1013.1 0 18.8 26.5 40.3 105.7 98.0 336.4
08/05 03:50 8.8 93 8.1 7.7 9 11 1013.1 0 18.8 26.5 40.3 105.7 98.0 336.4
08/05 03:40 8.6 94 8.08 7.7 9 17 1013.1 0 18.7 26.6 40.3 105.7 98.0 336.2
08/05 03:30 8.4 94 7.98 7.5 9 15 1013.1 0 18.5 26.5 40.0 104.8 96.8 332.2
08/05 03:20 8.1 94 7.82 7.2 11 13 1013.1 0 18.2 26.3 39.4 103.4 95.0 325.7
08/05 03:10 7.9 93 7.64 6.8 9 9 1013.1 0 17.8 26.0 38.8 101.7 92.7 317.8
08/05 03:00 7.9 93 7.64 6.8 11 15 1013.1 0 17.8 26.0 38.8 101.7 92.7 317.8
08/05 02:50 8 91 7.53 6.7 9 11 1013.1 0 17.6 25.8 38.3 100.3 91.1 312.1
08/05 02:40 8.1 91 7.58 6.8 7 11 1013.1 0 17.7 25.9 38.4 100.8 91.7 314.1
08/05 02:30 8.2 92 7.71 7 9 13 1013.1 0 17.9 26.1 38.9 102.1 93.3 320.0
08/05 02:20 8.3 91 7.67 6.9 11 15 1013.1 0 17.8 26.0 38.7 101.5 92.7 317.6
08/05 02:10 8.3 90 7.59 6.7 9 13 1013.1 0 17.7 25.8 38.4 100.6 91.6 313.8
08/05 02:00 8.5 90 7.69 7 7 11 1013.1 0 17.9 25.9 38.7 101.5 92.7 317.8
08/05 01:50 8.6 89 7.65 6.9 7 9 1013.1 0 17.8 25.8 38.5 100.9 92.0 315.5
08/05 01:40 8.8 88 7.66 6.9 11 13 1013.1 0 17.8 25.8 38.4 100.7 91.9 315.1
08/05 01:30 8.9 88 7.71 7 11 17 1013.1 0 17.9 25.9 38.6 101.2 92.5 317.1
08/05 01:20 9 87 7.67 6.9 11 15 1013.1 0 17.8 25.8 38.4 100.6 91.8 314.8
08/05 01:10 9 88 7.76 7.1 11 17 1013.1 0 18.0 25.9 38.7 101.6 93.0 319.1
08/05 01:00 8.9 87 7.62 6.9 11 15 1013.1 0 17.7 25.7 38.2 100.2 91.3 312.8
08/05 00:50 9 87 7.67 6.9 9 13 1013.1 0 17.8 25.8 38.4 100.6 91.8 314.8
08/05 00:40 8.7 88 7.61 6.8 11 13 1013.1 0 17.7 25.7 38.3 100.3 91.4 313.1
08/05 00:30 8.6 87 7.48 6.6 11 17 1013.1 0 17.4 25.6 37.8 99.0 89.7 307.3
08/05 00:20 8.7 87 7.53 6.6 11 15 1013.1 0 17.5 25.6 37.9 99.4 90.3 309.3
08/05 00:10 8.7 87 7.53 6.6 13 17 1013.1 0 17.5 25.6 37.9 99.4 90.3 309.3
08/05 00:00 8.4 87 7.38 6.4 9 15 1013.1 0 17.2 25.4 37.5 98.2 88.6 303.4
07/05 23:50 8.6 85 7.31 6.2 9 13 1013.1 0 17.1 25.3 37.1 97.1 87.4 299.3
07/05 23:40 8.6 86 7.39 6.4 7 11 1013.1 0 17.2 25.4 37.4 98.0 88.5 303.1
07/05 23:30 8.3 85 7.17 5.9 7 13 1013.1 0 16.8 25.1 36.6 96.0 85.8 293.8
07/05 23:20 8.6 84 7.22 6 7 9 1013.1 0 16.9 25.1 36.7 96.2 86.2 295.0
07/05 23:10 8.6 84 7.22 6 7 11 1013.1 0 16.9 25.1 36.7 96.2 86.2 295.0
07/05 23:00 8.7 84 7.27 6.2 9 15 1013.1 0 17.0 25.2 36.9 96.6 86.7 297.0
07/05 22:50 8.7 82 7.09 5.9 11 13 1013.1 0 16.6 24.9 36.1 94.6 84.3 288.5
07/05 22:40 9 82 7.23 6.1 9 13 1013.1 0 16.9 25.0 36.6 95.8 85.9 294.0
07/05 22:30 9 82 7.23 6.1 9 13 1013.1 0 16.9 25.0 36.6 95.8 85.9 294.0
07/05 22:20 8.9 81 7.1 5.8 11 13 1013.1 0 16.6 24.8 36.1 94.5 84.2 288.3
07/05 22:10 9.2 80 7.15 5.9 11 15 1013.1 0 16.7 24.8 36.1 94.7 84.6 289.5
07/05 22:00 9.4 79 7.15 5.9 11 15 1013.1 0 16.7 24.8 36.1 94.4 84.4 288.8
07/05 21:50 9.6 78 7.15 5.9 9 11 1013.1 0 16.7 24.7 36.0 94.2 84.1 288.0
07/05 21:40 9.6 76 6.96 5.7 13 17 1013.1 0 16.3 24.4 35.2 92.2 81.6 279.2
07/05 21:30 9.5 76 6.92 5.5 11 19 1013.1 0 16.2 24.4 35.1 91.8 81.2 277.8
07/05 21:20 9.7 75 6.92 5.5 11 15 1013.1 0 16.2 24.3 35.0 91.6 81.0 277.0
07/05 21:10 9.7 74 6.82 5.3 9 11 1013.1 0 16.0 24.2 34.6 90.5 79.7 272.5
07/05 21:00 9.6 73 6.69 5 11 15 1013.1 0 15.7 24.0 34.1 89.3 78.1 266.9
07/05 20:50 9.7 72 6.64 4.9 9 13 1013.1 0 15.6 23.9 33.9 88.7 77.4 264.3
07/05 20:40 9.8 71 6.59 4.8 9 13 1013.1 0 15.5 23.8 33.7 88.0 76.6 261.7
07/05 20:30 9.8 70 6.5 4.6 9 15 1013.1 0 15.3 23.6 33.3 87.1 75.5 257.6
07/05 20:20 9.8 69 6.4 4.4 11 15 1013.1 0 15.1 23.5 32.9 86.0 74.2 253.1
07/05 20:10 9.8 67 6.22 4.1 11 13 1013.1 0 14.7 23.2 32.2 84.2 71.9 245.0

Last Refresh: 08-May-2026 12:09:34

Bureau of Meteorology